Time;durP1;ratioP1;P1;durP2;ratioP2;P2;SDS_P1;SDS_P2;PMS_P1;PMS_P2;Temp;Humidity;BMP_temperature;BMP_pressure;BME280_temperature;BME280_humidity;BME280_pressure;Samples;Min_cycle;Max_cycle;Signal;HPM_P1;HPM_P2
2021/11/12 00:14:06;;;;;;;50.00;21.33;;;;;;;3.73;85.01;96794.06;5089545;28;20101;-71
2021/11/12 00:16:34;;;;;;;43.67;21.58;;;;;;;3.69;84.43;96802.91;5108912;28;20138;-72
2021/11/12 00:19:00;;;;;;;59.72;21.13;;;;;;;3.70;84.63;96799.16;5110469;27;20075;-71
2021/11/12 00:21:27;;;;;;;44.53;21.00;;;;;;;3.72;84.46;96786.25;5109136;28;20070;-71
2021/11/12 00:23:55;;;;;;;41.70;20.50;;;;;;;3.70;84.78;96789.19;5109456;28;20055;-70
2021/11/12 00:26:21;;;;;;;38.05;21.30;;;;;;;3.69;84.92;96782.19;5106636;27;20055;-70
2021/11/12 00:28:52;;;;;;;57.08;20.50;;;;;;;3.67;85.02;96778.94;5068967;28;20462;-73
2021/11/12 00:31:26;;;;;;;41.15;20.85;;;;;;;3.61;85.09;96785.41;5068696;28;20137;-71
2021/11/12 00:36:46;;;;;;;61.17;20.98;;;;;;;3.61;85.38;96780.00;5050940;28;20048;-72
2021/11/12 00:39:19;;;;;;;49.58;21.05;;;;;;;3.60;85.46;96779.19;5067699;28;20511;-70
2021/11/12 00:41:49;;;;;;;;;;;;;;;3.57;85.43;96776.22;5069480;28;20532;-73
2021/11/12 00:44:22;;;;;;;38.88;18.35;;;;;;;3.53;85.75;96775.13;5068568;28;19931;-70
2021/11/12 00:46:51;;;;;;;42.88;19.67;;;;;;;3.56;85.67;96777.28;5088897;28;20051;-71
2021/11/12 00:49:21;;;;;;;53.15;20.00;;;;;;;3.57;85.12;96774.31;5088774;28;20051;-71
2021/11/12 00:51:50;;;;;;;41.70;20.33;;;;;;;3.57;85.37;96768.13;5088071;28;20562;-70
2021/11/12 00:54:19;;;;;;;49.33;18.95;;;;;;;3.56;85.33;96770.03;5088343;28;20052;-73
2021/11/12 00:56:48;;;;;;;47.40;19.10;;;;;;;3.53;85.13;96772.41;5088116;28;20048;-73
2021/11/12 00:59:15;;;;;;;36.53;17.58;;;;;;;3.49;85.06;96771.31;5088504;28;20044;-71
2021/11/12 01:01:42;;;;;;;38.80;19.35;;;;;;;3.47;84.97;96773.47;5088207;28;20051;-71
2021/11/12 01:04:12;;;;;;;42.45;19.48;;;;;;;3.48;85.24;96769.69;5087876;28;20074;-71
2021/11/12 01:06:40;;;;;;;37.85;17.73;;;;;;;3.47;85.02;96774.28;5088646;28;20063;-71
2021/11/12 01:09:09;;;;;;;36.28;17.77;;;;;;;3.47;85.10;96774.28;5087808;28;20056;-71
2021/11/12 01:11:37;;;;;;;29.63;16.15;;;;;;;3.47;84.82;96778.84;5089038;28;20507;-71
2021/11/12 01:14:05;;;;;;;34.70;17.30;;;;;;;3.39;84.84;96783.69;5087071;28;20518;-70
2021/11/12 01:16:33;;;;;;;39.08;16.83;;;;;;;3.37;84.67;96775.03;5108812;28;20058;-71
2021/11/12 01:19:00;;;;;;;37.67;17.52;;;;;;;3.38;84.78;96778.53;5107806;28;20662;-71
2021/11/12 01:21:26;;;;;;;38.30;17.15;;;;;;;3.33;84.94;96773.94;5109009;28;20053;-72
2021/11/12 01:23:56;;;;;;;38.03;15.90;;;;;;;3.34;84.84;96770.19;5108041;28;20058;-71
2021/11/12 01:26:24;;;;;;;25.67;14.93;;;;;;;3.31;84.60;96770.69;5108320;28;20055;-71
2021/11/12 01:28:52;;;;;;;32.47;16.40;;;;;;;3.28;84.52;96775.78;5108621;28;20055;-71
2021/11/12 01:31:22;;;;;;;44.03;17.02;;;;;;;3.27;84.85;96774.19;5107494;28;20051;-71
2021/11/12 01:33:48;;;;;;;54.80;16.80;;;;;;;3.29;84.85;96772.84;5108362;28;20136;-71
2021/11/12 01:36:27;;;;;;;30.77;14.75;;;;;;;3.31;84.82;96776.09;5107285;28;20051;-71
2021/11/12 01:38:57;;;;;;;30.63;14.95;;;;;;;3.27;84.46;96763.41;5108866;28;20043;-71
2021/11/12 01:41:24;;;;;;;46.28;16.60;;;;;;;3.28;84.85;96768.53;5107283;28;20059;-71
2021/11/12 01:43:54;;;;;;;43.58;14.95;;;;;;;3.31;85.22;96770.69;5107912;28;20051;-71
2021/11/12 01:46:28;;;;;;;39.58;14.98;;;;;;;3.32;85.09;96766.94;5088903;28;20146;-70
2021/11/12 01:51:45;;;;;;;29.95;15.10;;;;;;;3.28;84.59;96760.44;5087560;28;20052;-70
2021/11/12 02:00:08;;;;;;;30.33;13.07;;;;;;;3.29;84.42;96767.47;5108302;27;20355;-72
2021/11/12 02:02:35;;;;;;;45.35;14.93;;;;;;;3.24;84.23;96763.94;5104631;27;20044;-72
2021/11/12 02:05:02;;;;;;;38.45;14.32;;;;;;;3.23;84.40;96752.34;5105057;28;20081;-71
2021/11/12 02:07:29;;;;;;;35.60;13.73;;;;;;;3.23;84.58;96746.97;5104165;28;20410;-72
2021/11/12 02:09:56;;;;;;;41.65;13.95;;;;;;;3.22;84.58;96748.03;5105702;28;20055;-72
2021/11/12 02:12:29;;;;;;;54.40;14.98;;;;;;;3.26;84.59;96743.75;5103955;28;20397;-72
2021/11/12 02:14:58;;;;;;;29.52;13.98;;;;;;;3.28;84.48;96732.72;5105260;28;20044;-72
2021/11/12 02:17:28;;;;;;;27.83;14.70;;;;;;;3.26;84.48;96741.06;5103976;27;20061;-72
2021/11/12 02:19:58;;;;;;;26.30;12.93;;;;;;;3.24;84.33;96734.34;5104387;27;20173;-71
2021/11/12 02:22:29;;;;;;;33.10;13.95;;;;;;;3.22;84.23;96734.59;5104326;27;20052;-72
2021/11/12 02:25:01;;;;;;;30.50;14.35;;;;;;;3.17;84.71;96733.75;5104253;27;20048;-72
2021/11/12 02:27:33;;;;;;;24.23;14.13;;;;;;;3.15;84.77;96728.63;5105208;27;20047;-72
2021/11/12 02:30:00;;;;;;;43.90;13.73;;;;;;;3.13;84.98;96722.69;5104043;27;20097;-72
2021/11/12 02:32:30;;;;;;;33.05;13.02;;;;;;;3.17;84.79;96723.78;5104594;27;20046;-72
2021/11/12 02:35:00;;;;;;;44.60;14.70;;;;;;;3.18;84.92;96728.09;5104229;27;20052;-72
2021/11/12 02:37:31;;;;;;;34.53;12.90;;;;;;;3.15;84.44;96723.25;5083798;28;20060;-72
2021/11/12 02:39:58;;;;;;;38.42;12.90;;;;;;;3.11;84.04;96722.16;5084460;28;20079;-72
2021/11/12 02:42:26;;;;;;;41.70;14.13;;;;;;;3.07;84.00;96721.84;5083122;28;20044;-72
2021/11/12 02:44:52;;;;;;;37.15;12.75;;;;;;;3.04;84.38;96710.81;5090028;28;20048;-72
2021/11/12 02:47:20;;;;;;;40.28;13.32;;;;;;;3.03;84.51;96704.63;5103517;28;20051;-71
2021/11/12 02:49:48;;;;;;;35.70;12.93;;;;;;;3.02;84.65;96696.81;5104764;28;20043;-73
2021/11/12 02:52:18;;;;;;;44.65;12.77;;;;;;;3.06;84.84;96704.09;5103122;28;20047;-71
2021/11/12 02:54:47;;;;;;;43.05;14.73;;;;;;;3.06;84.88;96698.72;5104406;28;20143;-72
2021/11/12 02:57:13;;;;;;;30.48;13.93;;;;;;;3.07;85.34;96699.53;5103415;28;20506;-72
2021/11/12 02:59:40;;;;;;;43.05;14.75;;;;;;;3.08;85.32;96703.81;5103901;28;20082;-72
2021/11/12 03:02:08;;;;;;;36.67;14.10;;;;;;;3.07;85.15;96704.91;5103503;28;20510;-71
2021/11/12 03:04:34;;;;;;;45.50;14.68;;;;;;;3.08;85.51;96699.28;5103603;28;20054;-72
2021/11/12 03:07:01;;;;;;;47.97;15.27;;;;;;;3.12;85.32;96696.84;5104221;28;20044;-72
2021/11/12 03:09:30;;;;;;;40.95;16.08;;;;;;;3.15;85.27;96696.34;5100050;28;20043;-71
2021/11/12 03:11:59;;;;;;;35.03;15.43;;;;;;;3.18;85.34;96695.81;5090613;28;20044;-72
2021/11/12 03:14:26;;;;;;;39.95;14.98;;;;;;;3.16;85.51;96697.16;5086742;28;20047;-72
2021/11/12 03:16:53;;;;;;;30.95;15.18;;;;;;;3.17;85.41;96698.75;5070294;28;20048;-72
2021/11/12 03:19:24;;;;;;;27.27;14.48;;;;;;;3.20;85.50;96699.06;5069209;28;20056;-72
2021/11/12 03:21:53;;;;;;;;;;;;;;;3.18;85.57;96697.69;5070197;28;20062;-71
2021/11/12 03:24:23;;;;;;;;;;;;;;;3.16;85.83;96691.78;5069855;28;19962;-71
2021/11/12 03:26:55;;;;;;;;;;;;;;;3.19;85.85;96702.84;5070021;28;19983;-72
2021/11/12 03:30:01;;;;;;;;;;;;;;;3.17;85.95;96694.19;5070415;28;19983;-71
2021/11/12 03:59:58;;;;;;;;;;;;;;;3.14;86.80;96684.78;5110184;28;19975;-71
2021/11/12 04:02:42;;;;;;;;;;;;;;;3.18;86.87;96678.84;5109253;28;20560;-72
2021/11/12 04:05:21;;;;;;;;;;;;;;;3.15;87.10;96685.59;5110348;28;20346;-72
2021/11/12 04:18:51;;;;;;;;;;;;;;;3.20;87.70;96666.78;5110244;28;20511;-72
2021/11/12 04:40:46;;;;;;;;;;;;;;;3.27;86.54;96670.03;5109432;28;20020;-72
2021/11/12 05:03:11;;;;;;;;;;;;;;;3.24;86.95;96675.94;5088391;28;19976;-72
2021/11/12 05:11:18;;;;;;;;;;;;;;;3.32;86.64;96675.41;5087857;28;20352;-72
2021/11/12 05:44:11;;;;;;;;;;;;;;;3.43;87.44;96670.06;5082833;28;19978;-72
2021/11/12 05:46:44;;;;;;;;;;;;;;;3.44;87.78;96677.06;5108447;28;20017;-72
2021/11/12 05:57:39;;;;;;;;;;;;;;;3.52;87.70;96668.50;5064407;28;19969;-72
2021/11/12 06:00:06;;;;;;;;;;;;;;;3.47;87.29;96666.59;5064543;28;20537;-72
2021/11/12 06:02:33;;;;;;;;;;;;;;;3.44;87.46;96666.31;5082653;28;19967;-72
2021/11/12 06:04:59;;;;;;;;;;;;;;;3.38;87.71;96665.47;5108489;28;19995;-72
2021/11/12 06:07:26;;;;;;;;;;;;;;;3.40;87.67;96666.84;5107090;28;20006;-72
2021/11/12 06:09:52;;;;;;;;;;;;;;;3.43;87.88;96673.56;5108464;28;19982;-72
2021/11/12 06:12:19;;;;;;;;;;;;;;;3.45;87.70;96667.94;5107321;28;19985;-72
2021/11/12 06:14:46;;;;;;;;;;;;;;;3.40;87.71;96661.47;5087159;28;19979;-72
2021/11/12 06:17:13;;;;;;;;;;;;;;;3.43;87.72;96670.06;5087355;28;19987;-72
2021/11/12 06:19:39;;;;;;;;;;;;;;;3.44;87.94;96669.81;5087625;28;20635;-72
2021/11/12 06:22:06;;;;;;;;;;;;;;;3.45;87.82;96674.13;5086472;28;20014;-72
2021/11/12 06:24:32;;;;;;;;;;;;;;;3.43;88.28;96672.75;5086707;28;20454;-72
2021/11/12 06:26:59;;;;;;;;;;;;;;;3.44;88.15;96667.09;5087569;28;19984;-72
2021/11/12 06:29:25;;;;;;;;;;;;;;;3.47;88.38;96671.16;5085368;28;19975;-73
2021/11/12 06:31:54;;;;;;;41.13;19.95;;;;;;;3.56;87.74;96665.00;5086065;28;20413;-72
2021/11/12 06:34:20;;;;;;;32.45;16.58;;;;;;;3.70;87.69;96662.59;5085418;28;20044;-72
2021/11/12 06:36:47;;;;;;;30.35;14.07;;;;;;;3.74;87.27;96661.00;5087721;28;20040;-72
2021/11/12 06:39:14;;;;;;;40.15;14.57;;;;;;;3.76;87.25;96658.88;5086078;28;20051;-72
2021/11/12 06:41:54;;;;;;;37.70;16.25;;;;;;;3.78;87.03;96656.69;5087057;28;20040;-72
2021/11/12 06:44:43;;;;;;;34.15;16.77;;;;;;;3.82;87.50;96663.19;5086000;28;20051;-72
2021/11/12 06:49:58;;;;;;;;;;;;;;;3.87;87.47;96660.50;5091913;28;20091;-72
2021/11/12 06:52:25;;;;;;;;;;;;;;;3.85;87.66;96657.25;5090013;28;19967;-72
2021/11/12 06:54:52;;;;;;;;;;;;;;;3.79;87.64;96657.50;5091299;28;19978;-72
2021/11/12 06:57:19;;;;;;;;;;;;;;;3.78;87.58;96651.31;5089201;28;20021;-72
2021/11/12 06:59:46;;;;;;;;;;;;;;;3.78;87.56;96659.41;5090858;28;19968;-72
2021/11/12 07:02:15;;;;;;;;;;;;;;;3.72;87.33;96659.66;5090599;28;19979;-72
2021/11/12 07:04:42;;;;;;;;;;;;;;;3.70;87.17;96654.50;5090699;28;20706;-72
2021/11/12 07:07:09;;;;;;;;;;;;;;;3.73;87.07;96654.00;5090901;28;19982;-72
2021/11/12 07:09:36;;;;;;;;;;;;;;;3.77;87.40;96655.09;5090492;28;20016;-72
2021/11/12 07:12:02;;;;;;;;;;;;;;;3.79;87.49;96654.81;5090774;28;19972;-72
2021/11/12 07:14:28;;;;;;;;;;;;;;;3.81;87.44;96656.19;5108096;28;19969;-72
2021/11/12 07:16:55;;;;;;;;;;;;;;;3.86;87.31;96658.88;5111626;28;19972;-72
2021/11/12 07:19:22;;;;;;;;;;;;;;;3.86;87.53;96653.50;5110260;27;19977;-72
2021/11/12 07:21:49;;;;;;;;;;;;;;;3.86;87.83;96653.50;5111076;28;19974;-72
2021/11/12 07:24:15;;;;;;;;;;;;;;;3.84;87.57;96661.00;5110314;27;19966;-72
2021/11/12 07:26:43;;;;;;;;;;;;;;;3.80;87.96;96654.53;5110849;28;20728;-72
2021/11/12 07:29:09;;;;;;;;;;;;;;;3.81;87.93;96650.78;5110611;28;19984;-72
2021/11/12 07:31:38;;;;;;;;;;;;;;;3.81;88.29;96661.56;5110398;27;19959;-72
2021/11/12 07:34:04;;;;;;;;;;;;;;;3.84;87.31;96658.31;5110510;28;19973;-72
2021/11/12 07:36:35;;;;;;;;;;;;;;;3.85;87.59;96661.81;5110204;27;19965;-72
2021/11/12 07:39:05;;;;;;;;;;;;;;;3.84;87.54;96655.63;5110555;28;19975;-72
2021/11/12 07:41:43;;;;;;;;;;;;;;;3.86;87.80;96648.09;5110199;28;20023;-72
2021/11/12 07:44:22;;;;;;;;;;;;;;;3.87;88.37;96648.91;5094483;27;19964;-72
2021/11/12 07:47:00;;;;;;;;;;;;;;;3.84;88.06;96639.47;5090362;28;19968;-73
2021/11/12 07:49:26;;;;;;;;;;;;;;;3.84;88.51;96644.84;5089261;28;20050;-72
2021/11/12 07:51:55;;;;;;;;;;;;;;;3.85;88.57;96651.03;5090376;28;19963;-72
2021/11/12 07:54:21;;;;;;;;;;;;;;;3.85;88.34;96648.34;5088893;28;19970;-72
2021/11/12 07:56:49;;;;;;;;;;;;;;;3.86;88.67;96641.88;5090390;28;20541;-72
2021/11/12 07:59:15;;;;;;;;;;;;;;;3.88;88.51;96637.84;5089090;28;20066;-73
2021/11/12 08:01:42;;;;;;;;;;;;;;;3.89;88.63;96636.78;5089947;28;19970;-72
2021/11/12 08:04:09;;;;;;;;;;;;;;;3.92;88.82;96638.94;5089282;28;19968;-72
2021/11/12 08:06:36;;;;;;;;;;;;;;;4.00;88.43;96653.75;5089675;28;19964;-72
2021/11/12 08:09:06;;;;;;;;;;;;;;;4.04;88.40;96649.44;5089556;28;20027;-71
2021/11/12 08:11:35;;;;;;;;;;;;;;;4.07;88.84;96650.78;5089132;28;20019;-72
2021/11/12 08:14:09;;;;;;;;;;;;;;;4.11;88.66;96643.78;5102707;28;19967;-71
2021/11/12 08:16:59;;;;;;;;;;;;;;;4.15;88.98;96651.06;5109315;27;20053;-72
2021/11/12 08:19:28;;;;;;;;;;;;;;;4.21;88.13;96643.78;5109715;28;20066;-72
2021/11/12 08:22:01;;;;;;;;;;;;;;;4.22;88.03;96645.41;5109862;28;19983;-72
2021/11/12 08:24:43;;;;;;;;;;;;;;;4.24;88.04;96647.84;5109118;28;20439;-72
2021/11/12 08:30:17;;;;;;;;;;;;;;;4.23;87.29;96641.66;5105244;28;20595;-72
2021/11/12 08:32:58;;;;;;;;;;;;;;;4.21;87.40;96640.28;5109405;28;19966;-72
2021/11/12 08:35:34;;;;;;;;;;;;;;;4.17;87.39;96646.22;5109037;28;19994;-72
2021/11/12 08:38:11;;;;;;;;;;;;;;;4.16;87.75;96647.28;5109445;27;20584;-72
2021/11/12 08:43:26;;;;;;;;;;;;;;;4.15;88.21;96640.28;5107089;28;19974;-72
2021/11/12 08:46:08;;;;;;;31.45;13.20;;;;;;;4.11;87.32;96646.47;5109389;27;20421;-72
2021/11/12 08:48:53;;;;;;;26.15;13.23;;;;;;;4.12;87.30;96634.63;5088610;28;20457;-72
2021/11/12 08:51:21;;;;;;;27.08;12.48;;;;;;;4.16;87.60;96635.69;5087572;28;20048;-72
2021/11/12 08:53:48;;;;;;;25.48;13.00;;;;;;;4.23;88.24;96635.44;5088553;28;20119;-72
2021/11/12 08:56:18;;;;;;;28.13;13.93;;;;;;;4.26;88.10;96633.00;5087355;28;20516;-72
2021/11/12 08:58:46;;;;;;;27.25;13.00;;;;;;;4.35;88.07;96638.66;5088836;28;20048;-72
2021/11/12 09:01:14;;;;;;;25.98;14.50;;;;;;;4.44;87.83;96624.38;5087194;28;20511;-72
2021/11/12 09:03:41;;;;;;;24.88;12.88;;;;;;;4.52;87.36;96623.00;5088007;28;20435;-72
2021/11/12 09:06:08;;;;;;;38.65;13.90;;;;;;;4.57;87.43;96616.78;5087667;28;20051;-72
2021/11/12 09:08:35;;;;;;;26.08;13.80;;;;;;;4.57;87.07;96614.09;5087651;28;20052;-72
2021/11/12 09:11:04;;;;;;;33.92;14.00;;;;;;;4.54;86.59;96604.69;5087732;28;20055;-72
2021/11/12 09:13:37;;;;;;;28.92;13.88;;;;;;;4.55;86.73;96602.78;5077318;28;20113;-72
2021/11/12 09:16:07;;;;;;;25.13;13.88;;;;;;;4.57;86.80;96603.31;5067735;28;20055;-71
2021/11/12 09:18:35;;;;;;;29.00;13.93;;;;;;;4.58;86.88;96594.94;5067035;28;20114;-72
2021/11/12 09:21:01;;;;;;;25.90;12.55;;;;;;;4.63;86.87;96596.81;5067988;28;20058;-70
2021/11/12 09:23:28;;;;;;;23.20;13.27;;;;;;;4.71;86.20;96599.78;5067121;28;20044;-72
2021/11/12 09:25:54;;;;;;;26.05;13.63;;;;;;;4.75;86.26;96599.19;5068242;28;20083;-72
2021/11/12 09:28:21;;;;;;;28.80;13.80;;;;;;;4.79;86.23;96606.47;5066994;28;20583;-72
2021/11/12 09:30:49;;;;;;;31.48;14.43;;;;;;;4.85;86.49;96599.97;5067605;28;20044;-72
2021/11/12 09:33:15;;;;;;;;;;;;;;;4.94;86.13;96597.53;5067076;28;20091;-71
2021/11/12 09:35:42;;;;;;;;;;;;;;;4.92;85.97;96589.72;5067962;28;20472;-72
2021/11/12 09:38:09;;;;;;;;;;;;;;;4.86;86.03;96590.81;5068066;28;20530;-72
2021/11/12 09:40:35;;;;;;;;;;;;;;;4.87;86.06;96587.03;5067419;28;19970;-72
2021/11/12 09:43:02;;;;;;;;;;;;;;;4.88;86.04;96577.84;5072620;28;19971;-71
2021/11/12 09:45:28;;;;;;;;;;;;;;;4.83;85.29;96583.25;5088670;28;19969;-72
2021/11/12 09:47:57;;;;;;;;;;;;;;;4.78;85.39;96594.06;5088841;28;19971;-72
2021/11/12 09:50:25;;;;;;;;;;;;;;;4.75;85.12;96600.03;5087253;28;20004;-72
2021/11/12 09:52:53;;;;;;;;;;;;;;;4.72;84.96;96584.38;5087759;28;19975;-71
2021/11/12 09:55:20;;;;;;;;;;;;;;;4.72;85.37;96584.38;5087608;28;19969;-72
2021/11/12 09:57:47;;;;;;;;;;;;;;;4.69;84.92;96577.63;5087606;28;19963;-73
2021/11/12 10:00:16;;;;;;;;;;;;;;;4.71;85.00;96582.78;5088135;28;19971;-72
2021/11/12 10:02:44;;;;;;;;;;;;;;;4.71;85.10;96583.59;5086883;28;20340;-72
2021/11/12 10:05:12;;;;;;;;;;;;;;;4.76;85.55;96574.66;5088118;28;19967;-71
2021/11/12 10:07:39;;;;;;;;;;;;;;;4.77;85.39;96568.19;5087358;28;19978;-72
2021/11/12 10:10:08;;;;;;;;;;;;;;;4.84;85.40;96568.69;5088013;28;19973;-72
2021/11/12 10:12:36;;;;;;;;;;;;;;;4.88;84.87;96558.97;5085938;28;19971;-72
2021/11/12 10:15:10;;;;;;;;;;;;;;;4.85;84.75;96556.81;5087542;28;19964;-71
2021/11/12 10:17:37;;;;;;;;;;;;;;;4.85;84.82;96546.00;5087820;28;20498;-72
2021/11/12 10:20:07;;;;;;;;;;;;;;;4.85;84.90;96539.81;5087787;28;19987;-72
2021/11/12 10:22:35;;;;;;;;;;;;;;;4.88;84.92;96540.06;5092005;28;19969;-72
2021/11/12 10:25:04;;;;;;;;;;;;;;;4.89;85.28;96544.38;5091093;28;20059;-72
2021/11/12 10:27:32;;;;;;;;;;;;;;;4.93;85.31;96547.34;5092187;28;19975;-72
2021/11/12 10:30:00;;;;;;;;;;;;;;;4.94;84.68;96549.75;5091077;28;20059;-72
2021/11/12 10:32:27;;;;;;;;;;;;;;;4.91;83.93;96552.22;5111980;28;20050;-71
2021/11/12 10:34:56;;;;;;;;;;;;;;;4.83;84.78;96542.78;5111835;27;20024;-72
2021/11/12 10:37:23;;;;;;;;;;;;;;;4.84;85.85;96549.00;5111547;27;19961;-72
2021/11/12 10:39:52;;;;;;;;;;;;;;;4.86;86.32;96544.16;5112002;28;20465;-72
2021/11/12 10:42:20;;;;;;;;;;;;;;;4.86;86.95;96539.56;5110940;28;19980;-71
2021/11/12 10:44:47;;;;;;;;;;;;;;;4.84;87.09;96544.41;5091349;28;20411;-72
2021/11/12 10:47:15;;;;;;;;;;;;;;;4.88;87.16;96545.47;5090447;28;20537;-71
2021/11/12 10:49:42;;;;;;;;;;;;;;;4.95;86.72;96529.78;5092431;28;19983;-71
2021/11/12 10:52:11;;;;;;;;;;;;;;;5.02;86.72;96540.28;5090214;28;20010;-71
2021/11/12 10:54:57;;;;;;;;;;;;;;;5.04;85.70;96523.81;5091610;28;20406;-72
2021/11/12 10:57:26;;;;;;;;;;;;;;;5.00;84.20;96520.03;5090748;28;20487;-71
2021/11/12 11:00:02;;;;;;;;;;;;;;;5.01;83.76;96505.47;5090932;28;19982;-72
2021/11/12 11:02:29;;;;;;;;;;;;;;;5.08;84.62;96512.19;5090949;28;20041;-72
2021/11/12 11:04:57;;;;;;;;;;;;;;;5.08;84.93;96516.78;5090521;28;19973;-72
2021/11/12 11:07:24;;;;;;;;;;;;;;;5.04;85.05;96515.72;5091169;28;19970;-72
2021/11/12 11:09:53;;;;;;;;;;;;;;;5.01;85.08;96505.47;5090435;28;19977;-72
2021/11/12 11:12:30;;;;;;;;;;;;;;;5.01;85.21;96505.47;5090811;28;19971;-71
2021/11/12 11:15:09;;;;;;;;;;;;;;;4.98;84.94;96496.84;5070953;28;20063;-72
2021/11/12 11:17:37;;;;;;;;;;;;;;;5.01;85.19;96505.47;5070638;28;19977;-72
2021/11/12 11:20:07;;;;;;;;;;;;;;;5.04;85.23;96505.72;5070425;28;19972;-71
2021/11/12 11:22:43;;;;;;;;;;;;;;;5.09;84.83;96499.50;5069882;28;20499;-72
2021/11/12 11:25:11;;;;;;;;;;;;;;;5.16;84.42;96489.19;5070532;28;20551;-71
2021/11/12 11:27:37;;;;;;;;;;;;;;;5.18;83.97;96495.13;5069875;28;19965;-72
2021/11/12 11:30:04;;;;;;;;;;;;;;;5.23;84.02;96497.78;5070562;28;19980;-71
2021/11/12 11:32:32;;;;;;;;;;;;;;;5.21;84.12;96494.53;5070090;28;19965;-72
2021/11/12 11:34:58;;;;;;;;;;;;;;;5.23;84.52;96487.00;5070450;28;19971;-71
2021/11/12 11:37:25;;;;;;;;;;;;;;;5.17;84.46;96482.72;5069803;28;19968;-72
2021/11/12 11:39:53;;;;;;;;;;;;;;;5.22;84.01;96474.59;5070181;28;19967;-71
2021/11/12 11:42:20;;;;;;;;;;;;;;;5.27;83.89;96477.22;5069738;28;19982;-71
2021/11/12 11:44:47;;;;;;;;;;;;;;;5.29;84.18;96466.97;5089249;28;19970;-72
2021/11/12 11:47:13;;;;;;;;;;;;;;;5.31;84.35;96467.47;5090491;28;20046;-72
2021/11/12 11:49:40;;;;;;;;;;;;;;;5.34;84.35;96471.53;5089822;28;19971;-72
2021/11/12 11:52:09;;;;;;;;;;;;;;;5.32;84.23;96468.28;5090246;28;19969;-71
2021/11/12 11:54:36;;;;;;;;;;;;;;;5.35;82.69;96462.34;5089453;28;20446;-71
2021/11/12 11:57:11;;;;;;;;;;;;;;;5.35;82.97;96463.13;5089555;28;19983;-71
2021/11/12 11:59:41;;;;;;;;;;;;;;;5.39;83.30;96457.97;5090086;28;19980;-72
2021/11/12 12:02:11;;;;;;;;;;;;;;;5.39;83.41;96458.78;5089155;28;20017;-71
2021/11/12 12:04:38;;;;;;;;;;;;;;;5.35;83.49;96455.03;5090198;28;19995;-71
2021/11/12 12:07:14;;;;;;;;;;;;;;;5.37;83.53;96454.75;5088694;28;20452;-71
2021/11/12 12:09:41;;;;;;;;;;;;;;;5.32;83.61;96450.19;5090474;28;19973;-71
2021/11/12 12:12:08;;;;;;;;;;;;;;;5.33;84.15;96453.72;5088662;28;19975;-72
2021/11/12 12:14:36;;;;;;;;;;;;;;;5.39;84.64;96458.78;5089532;28;20435;-72
2021/11/12 12:17:10;;;;;;;;;;;;;;;5.39;84.38;96463.38;5089330;28;19974;-71
2021/11/12 12:19:41;;;;;;;;;;;;;;;5.42;84.07;96463.59;5089760;28;19966;-72
2021/11/12 12:22:36;;;;;;;;;;;;;;;5.44;84.07;96452.53;5089219;28;20065;-71
2021/11/12 12:31:27;;;;;;;;;;;;;;;5.46;84.18;96437.66;5089343;28;19969;-72
2021/11/12 12:34:33;;;;;;;;;;;;;;;5.52;84.15;96424.91;5088305;28;19969;-72
2021/11/12 12:37:15;;;;;;;;;;;;;;;5.54;83.38;96422.75;5089641;28;20014;-72
2021/11/12 13:22:04;;;;;;;;;;;;;;;5.46;84.10;96405.25;5084452;28;19981;-72
2021/11/12 13:27:12;;;;;;;;;;;;;;;5.44;84.05;96402.03;5087093;28;20415;-72
2021/11/12 13:29:42;;;;;;;;;;;;;;;5.44;83.64;96395.84;5088553;28;20426;-72
2021/11/12 13:32:09;;;;;;;;;;;;;;;5.43;83.94;96394.22;5087393;28;19967;-71
2021/11/12 13:34:43;;;;;;;;;;;;;;;5.42;83.83;96388.00;5088323;28;19966;-72
2021/11/12 13:37:16;;;;;;;;;;;;;;;5.34;83.79;96394.03;5087733;28;19980;-72
2021/11/12 13:39:44;;;;;;;;;;;;;;;5.36;83.93;96394.53;5087922;28;19969;-72
2021/11/12 13:42:10;;;;;;;;;;;;;;;5.40;83.75;96389.38;5087544;28;19975;-72
2021/11/12 13:44:38;;;;;;;;;;;;;;;5.41;84.29;96383.69;5105595;28;20512;-72
2021/11/12 13:47:07;;;;;;;;;;;;;;;5.39;85.00;96385.88;5108292;28;19972;-72
2021/11/12 13:49:35;;;;;;;;;;;;;;;5.37;85.25;96379.94;5107847;28;19970;-72
2021/11/12 13:52:03;;;;;;;;;;;;;;;5.32;85.04;96388.06;5108564;28;19966;-71
2021/11/12 13:54:30;;;;;;;;;;;;;;;5.28;84.92;96387.06;5107568;28;19990;-72
2021/11/12 13:56:57;;;;;;;;;;;;;;;5.26;85.22;96389.22;5108523;27;19979;-72
2021/11/12 13:59:25;;;;;;;;;;;;;;;5.25;85.07;96376.81;5107339;28;19968;-72
2021/11/12 14:02:00;;;;;;;;;;;;;;;5.23;84.39;96366.31;5108361;28;19972;-72
2021/11/12 14:04:27;;;;;;;;;;;;;;;5.21;84.74;96365.75;5107693;28;19982;-72
2021/11/12 14:06:55;;;;;;;;;;;;;;;5.16;83.62;96373.09;5108058;28;19968;-72
2021/11/12 14:09:24;;;;;;;;;;;;;;;5.09;83.75;96372.63;5108081;28;20431;-72
2021/11/12 14:12:04;;;;;;;;;;;;;;;5.09;84.21;96378.03;5107625;28;19980;-71
2021/11/12 14:14:32;;;;;;;;;;;;;;;4.99;84.32;96368.13;5106998;28;20327;-72
2021/11/12 14:17:15;;;;;;;;;;;;;;;4.97;84.42;96373.81;5107786;28;20079;-71
2021/11/12 14:22:32;;;;;;;;;;;;;;;4.85;85.26;96378.72;5105676;28;19985;-72
2021/11/12 14:25:08;;;;;;;;;;;;;;;4.79;85.59;96379.84;5107548;28;19976;-72
2021/11/12 14:27:38;;;;;;;;;;;;;;;4.74;85.56;96371.78;5108475;28;19962;-72
2021/11/12 14:30:25;;;;;;;;;;;;;;;4.68;85.66;96381.00;5107303;28;19967;-72
2021/11/12 14:35:40;;;;;;;;;;;;;;;4.79;86.04;96373.66;5106019;28;20376;-71
2021/11/12 14:38:22;;;;;;;;;;;;;;;4.82;86.06;96373.09;5107210;28;20580;-72
2021/11/12 14:43:58;;;;;;;;;;;;;;;4.76;85.61;96368.84;5096424;28;19973;-72
2021/11/12 14:46:28;;;;;;;;;;;;;;;4.75;85.64;96370.72;5086894;28;19967;-72
2021/11/12 14:49:06;;;;;;;;;;;;;;;4.73;85.73;96359.41;5087691;28;20013;-72
2021/11/12 14:51:38;;;;;;;;;;;;;;;4.73;85.42;96354.00;5086798;28;20346;-71
2021/11/12 14:54:05;;;;;;;;;;;;;;;4.75;85.19;96356.41;5087286;28;19993;-71
2021/11/12 14:56:32;;;;;;;;;;;;;;;4.72;84.98;96352.41;5086772;28;20342;-71
2021/11/12 14:59:02;;;;;;;;;;;;;;;4.72;84.70;96357.78;5087490;28;20434;-71
2021/11/12 15:01:31;;;;;;;;;;;;;;;4.73;84.89;96356.69;5086823;28;20005;-71
2021/11/12 15:03:57;;;;;;;;;;;;;;;4.69;84.90;96363.72;5086985;28;19971;-72
2021/11/12 15:06:26;;;;;;;;;;;;;;;4.70;85.03;96365.38;5088441;28;19977;-72
2021/11/12 15:08:54;;;;;;;;;;;;;;;4.71;84.67;96354.28;5090725;28;19969;-71
2021/11/12 15:11:23;;;;;;;;;;;;;;;4.75;85.04;96348.31;5090798;28;20182;-71
2021/11/12 15:13:51;;;;;;;;;;;;;;;4.72;84.91;96350.50;5101750;28;20541;-71
2021/11/12 15:16:22;;;;;;;;;;;;;;;4.71;85.39;96350.78;5111386;28;19995;-72
2021/11/12 15:18:50;;;;;;;;;;;;;;;4.72;85.59;96355.91;5110686;28;19982;-72
2021/11/12 15:21:18;;;;;;;;;;;;;;;4.72;85.87;96352.41;5111004;28;19969;-71
2021/11/12 15:24:06;;;;;;;;;;;;;;;4.72;85.76;96353.19;5110653;28;19968;-71
2021/11/12 15:29:20;;;;;;;;;;;;;;;4.71;86.04;96340.00;5111250;27;19974;-72
2021/11/12 15:31:56;;;;;;;;;;;;;;;4.71;86.19;96351.59;5109921;28;20023;-72
2021/11/12 15:34:23;;;;;;;;;;;;;;;4.70;86.12;96351.88;5110435;27;20048;-72
2021/11/12 15:36:58;;;;;;;;;;;;;;;4.73;85.82;96359.41;5110233;28;19983;-71
2021/11/12 15:39:32;;;;;;;;;;;;;;;4.75;86.01;96356.41;5109299;27;19968;-72
2021/11/12 15:44:43;;;;;;;;;;;;;;;4.73;86.07;96359.41;5089569;28;20469;-72
2021/11/12 15:47:21;;;;;;;;;;;;;;;4.72;86.27;96355.09;5089955;28;19965;-72
2021/11/12 15:49:49;;;;;;;;;;;;;;;4.70;86.10;96354.59;5089744;28;20495;-72
2021/11/12 15:52:19;;;;;;;;;;;;;;;4.71;86.25;96366.97;5089763;28;19976;-71
2021/11/12 15:54:56;;;;;;;;;;;;;;;4.74;85.88;96371.78;5089394;28;19965;-71
2021/11/12 16:00:17;;;;;;;33.70;12.18;;;;;;;5.00;85.61;96368.91;5071338;28;20554;-71
2021/11/12 16:03:05;;;;;;;29.58;13.02;;;;;;;4.96;85.36;96360.59;5088487;28;20051;-71
2021/11/12 16:08:29;;;;;;;26.50;12.98;;;;;;;4.86;86.04;96352.59;5088782;28;20040;-72
2021/11/12 16:11:12;;;;;;;31.85;12.60;;;;;;;4.80;85.96;96341.00;5089157;28;20052;-72
2021/11/12 16:13:41;;;;;;;22.63;12.55;;;;;;;4.80;86.57;96354.47;5088612;28;20063;-72
2021/11/12 16:19:07;;;;;;;25.08;13.07;;;;;;;4.82;86.62;96349.63;5089710;28;20044;-71
2021/11/12 16:21:47;;;;;;;28.70;13.05;;;;;;;4.83;86.53;96347.72;5089448;28;20036;-72
2021/11/12 16:26:59;;;;;;;22.42;11.55;;;;;;;4.78;86.49;96339.69;5088254;28;20063;-72
2021/11/12 16:29:37;;;;;;;22.75;11.48;;;;;;;4.79;86.48;96344.78;5087631;28;20055;-72